createdAt,value
2017-11-09T00:01:08.372Z,12.13
2017-11-09T00:03:34.651Z,12.07
2017-11-09T00:06:00.857Z,12.02
2017-11-09T00:08:27.094Z,11.87
2017-11-09T00:10:53.369Z,11.66
2017-11-09T00:13:19.610Z,11.83
2017-11-09T00:15:45.876Z,11.86
2017-11-09T00:18:12.192Z,11.79
2017-11-09T00:20:38.439Z,11.95
2017-11-09T00:23:04.684Z,12.08
2017-11-09T00:25:30.953Z,12.24
2017-11-09T00:27:57.181Z,12.43
2017-11-09T00:30:23.493Z,12.46
2017-11-09T00:32:49.722Z,12.31
2017-11-09T00:35:15.943Z,12.31
2017-11-09T00:37:42.185Z,11.99
2017-11-09T00:40:08.455Z,12.07
2017-11-09T00:42:34.688Z,12.04
2017-11-09T00:45:00.914Z,12.05
2017-11-09T00:47:27.209Z,12.12
2017-11-09T00:49:53.527Z,12.09
2017-11-09T00:52:19.754Z,12.21
2017-11-09T00:54:46.020Z,12.18
2017-11-09T00:57:12.273Z,12.22
2017-11-09T00:59:38.501Z,12.35
2017-11-09T01:02:04.768Z,12.39
2017-11-09T01:04:31.009Z,12.33
2017-11-09T01:06:57.241Z,12.31
2017-11-09T01:09:23.528Z,12.25
2017-11-09T01:11:49.762Z,12.24
2017-11-09T01:14:16.015Z,12.18
2017-11-09T01:16:42.295Z,12.16
2017-11-09T01:19:08.525Z,12.28
2017-11-09T01:21:34.736Z,12.41
2017-11-09T01:24:01.029Z,12.51
2017-11-09T01:26:27.266Z,12.59
2017-11-09T01:28:53.522Z,12.66
2017-11-09T01:31:19.794Z,12.61
2017-11-09T01:33:46.031Z,12.72
2017-11-09T01:36:12.304Z,12.80
2017-11-09T01:38:38.571Z,12.96
2017-11-09T01:41:04.808Z,13.10
2017-11-09T01:43:31.049Z,13.22
2017-11-09T01:45:57.333Z,13.27
2017-11-09T01:48:23.580Z,13.22
2017-11-09T01:50:49.817Z,13.26
2017-11-09T01:53:16.072Z,13.18
2017-11-09T01:55:42.315Z,13.29
2017-11-09T01:58:08.545Z,13.43
2017-11-09T02:00:34.808Z,13.49
2017-11-09T02:03:01.041Z,13.58
2017-11-09T02:05:27.273Z,13.56
2017-11-09T02:07:53.544Z,13.52
2017-11-09T02:10:19.872Z,13.53
2017-11-09T02:12:46.104Z,13.59
2017-11-09T02:15:12.373Z,13.60
2017-11-09T02:17:38.616Z,13.74
2017-11-09T02:20:04.841Z,13.76
2017-11-09T02:22:31.080Z,13.80
2017-11-09T02:24:57.347Z,13.84
2017-11-09T02:27:23.654Z,13.88
2017-11-09T02:29:49.894Z,13.86
2017-11-09T02:32:16.160Z,13.90
2017-11-09T02:34:42.382Z,13.93
2017-11-09T02:37:08.607Z,13.96
2017-11-09T02:39:34.870Z,13.99
2017-11-09T02:42:01.122Z,13.94
2017-11-09T02:44:27.359Z,13.95
2017-11-09T02:46:53.646Z,13.95
2017-11-09T02:49:19.888Z,13.97
2017-11-09T02:51:46.139Z,13.96
2017-11-09T02:54:12.407Z,13.96
2017-11-09T02:56:38.637Z,13.96
2017-11-09T02:59:04.871Z,13.91
2017-11-09T03:01:31.143Z,13.89
2017-11-09T03:03:57.386Z,13.88
2017-11-09T03:06:23.809Z,13.86
2017-11-09T03:08:50.161Z,13.74
2017-11-09T03:11:16.404Z,13.58
2017-11-09T03:13:42.651Z,13.49
2017-11-09T03:16:08.943Z,13.32
2017-11-09T03:18:35.304Z,13.16
2017-11-09T03:21:01.531Z,12.92
2017-11-09T03:23:27.799Z,12.69
2017-11-09T03:25:54.018Z,12.63
2017-11-09T03:28:20.247Z,12.47
2017-11-09T03:30:46.512Z,12.32
2017-11-09T03:33:12.764Z,12.17
2017-11-09T03:35:39.010Z,12.10
2017-11-09T03:38:05.276Z,12.06
2017-11-09T03:40:31.506Z,12.05
2017-11-09T03:42:57.729Z,12.04
2017-11-09T03:45:24.001Z,12.04
2017-11-09T03:47:50.230Z,12.02
2017-11-09T03:50:16.489Z,11.94
2017-11-09T03:52:42.770Z,11.95
2017-11-09T03:55:09.119Z,11.91
2017-11-09T03:57:35.349Z,11.87
2017-11-09T04:00:01.637Z,11.88
2017-11-09T04:02:27.886Z,11.99
2017-11-09T04:04:54.112Z,12.06
2017-11-09T04:07:20.353Z,12.11
2017-11-09T04:09:46.591Z,12.13
2017-11-09T04:12:12.957Z,12.21
2017-11-09T04:14:39.232Z,12.09
2017-11-09T04:17:05.466Z,12.13
2017-11-09T04:19:31.698Z,12.14
2017-11-09T04:21:57.967Z,12.08
2017-11-09T04:24:24.196Z,11.99
2017-11-09T04:26:50.440Z,11.76
2017-11-09T04:29:16.751Z,11.75
2017-11-09T04:31:42.982Z,11.84
2017-11-09T04:34:09.204Z,11.82
2017-11-09T04:36:35.474Z,11.92
2017-11-09T04:39:01.714Z,11.94
2017-11-09T04:41:27.963Z,12.02
2017-11-09T04:43:54.254Z,12.02
2017-11-09T04:46:20.503Z,12.05
2017-11-09T04:48:46.726Z,12.16
2017-11-09T04:51:13.009Z,12.20
2017-11-09T04:53:39.230Z,12.19
2017-11-09T04:56:05.465Z,12.20
2017-11-09T04:58:31.760Z,12.18
2017-11-09T05:00:58.004Z,12.17
2017-11-09T05:03:24.230Z,12.14
2017-11-09T05:05:50.504Z,12.12
2017-11-09T05:08:16.732Z,12.12
2017-11-09T05:10:42.968Z,12.09
2017-11-09T05:13:09.239Z,12.02
2017-11-09T05:15:35.488Z,11.91
2017-11-09T05:18:01.738Z,11.94
2017-11-09T05:20:28.033Z,11.95
2017-11-09T05:22:54.262Z,11.95
2017-11-09T05:25:20.500Z,11.99
2017-11-09T05:27:46.783Z,12.06
2017-11-09T05:30:13.001Z,12.15
2017-11-09T05:32:39.242Z,12.18
2017-11-09T05:35:05.525Z,12.25
2017-11-09T05:37:31.771Z,12.34
2017-11-09T05:39:58.039Z,12.37
2017-11-09T05:42:24.305Z,12.44
2017-11-09T05:44:50.551Z,12.48
2017-11-09T05:47:16.801Z,12.55
2017-11-09T05:49:43.085Z,12.56
2017-11-09T05:52:09.321Z,12.42
2017-11-09T05:54:35.549Z,12.33
2017-11-09T05:57:01.898Z,12.34
2017-11-09T05:59:28.127Z,12.34
2017-11-09T06:01:54.371Z,12.43
2017-11-09T06:04:20.605Z,12.35
2017-11-09T06:06:46.840Z,12.28
2017-11-09T06:09:13.117Z,12.16
2017-11-09T06:11:39.353Z,12.13
2017-11-09T06:14:05.708Z,12.13
2017-11-09T06:16:31.986Z,12.04
2017-11-09T06:18:58.193Z,12.05
2017-11-09T06:21:24.466Z,12.05
2017-11-09T06:23:50.792Z,12.05
2017-11-09T06:26:17.189Z,12.19
2017-11-09T06:28:43.416Z,12.34
2017-11-09T06:31:09.709Z,12.42
2017-11-09T06:33:35.932Z,12.57
2017-11-09T06:36:02.182Z,12.69
2017-11-09T06:38:28.468Z,12.77
2017-11-09T06:40:54.755Z,12.82
2017-11-09T06:43:21.151Z,12.86
2017-11-09T06:45:47.417Z,12.75
2017-11-09T06:48:13.744Z,12.81
2017-11-09T06:50:39.987Z,12.86
2017-11-09T06:53:06.260Z,13.00
2017-11-09T06:55:32.600Z,13.09
2017-11-09T06:57:58.840Z,12.96
2017-11-09T07:00:25.091Z,13.04
2017-11-09T07:02:51.313Z,13.08
2017-11-09T07:05:17.557Z,13.12
2017-11-09T07:07:43.837Z,13.11
2017-11-09T07:10:10.216Z,13.08
2017-11-09T07:12:36.463Z,12.90
2017-11-09T07:15:02.786Z,12.94
2017-11-09T07:17:29.032Z,13.09
2017-11-09T07:19:55.279Z,13.27
2017-11-09T07:22:21.543Z,13.42
2017-11-09T07:24:47.772Z,13.55
2017-11-09T07:27:14.006Z,13.70
2017-11-09T07:29:40.305Z,13.83
2017-11-09T07:32:06.529Z,13.94
2017-11-09T07:34:32.767Z,14.02
2017-11-09T07:36:59.076Z,14.15
2017-11-09T07:39:25.308Z,14.29
2017-11-09T07:41:51.535Z,14.47
2017-11-09T07:44:17.804Z,14.63
2017-11-09T07:46:44.056Z,14.64
2017-11-09T07:49:10.306Z,14.65
2017-11-09T07:51:36.591Z,14.75
2017-11-09T07:54:02.948Z,14.86
2017-11-09T07:56:29.184Z,14.94
2017-11-09T07:58:55.469Z,15.22
2017-11-09T08:01:21.729Z,15.48
2017-11-09T08:03:47.976Z,15.70
2017-11-09T08:06:14.288Z,16.15
2017-11-09T08:08:40.552Z,16.48
2017-11-09T08:11:06.798Z,16.80
2017-11-09T08:13:33.182Z,17.07
2017-11-09T08:15:59.477Z,17.26
2017-11-09T08:18:25.736Z,17.46
2017-11-09T08:20:52.038Z,17.83
2017-11-09T08:23:18.420Z,17.92
2017-11-09T08:25:44.654Z,18.00
2017-11-09T08:28:10.959Z,18.54
2017-11-09T08:30:37.187Z,19.22
2017-11-09T08:33:03.455Z,19.69
2017-11-09T08:35:29.736Z,20.33
2017-11-09T08:37:55.975Z,21.19
2017-11-09T08:40:22.219Z,21.40
2017-11-09T08:42:48.505Z,20.40
2017-11-09T08:45:14.754Z,19.94
2017-11-09T08:47:40.993Z,19.59
2017-11-09T08:50:07.271Z,18.92
2017-11-09T08:52:33.514Z,18.34
2017-11-09T08:54:59.753Z,17.77
2017-11-09T08:57:26.042Z,17.43
2017-11-09T08:59:52.291Z,17.34
2017-11-09T09:02:18.531Z,17.02
2017-11-09T09:04:44.801Z,16.87
2017-11-09T09:07:11.030Z,16.30
2017-11-09T09:09:37.303Z,16.49
2017-11-09T09:12:03.594Z,16.36
2017-11-09T09:14:29.841Z,16.52
2017-11-09T09:16:56.078Z,16.68
2017-11-09T09:19:22.357Z,16.62
2017-11-09T09:21:48.606Z,16.66
2017-11-09T09:24:14.836Z,16.47
2017-11-09T09:26:41.117Z,16.63
2017-11-09T09:29:07.380Z,16.69
2017-11-09T09:31:33.612Z,16.69
2017-11-09T09:33:59.887Z,16.94
2017-11-09T09:36:26.285Z,16.99
2017-11-09T09:38:52.534Z,16.32
2017-11-09T09:41:18.792Z,17.03
2017-11-09T09:43:45.178Z,16.80
2017-11-09T09:46:11.409Z,16.78
2017-11-09T09:48:37.657Z,17.11
2017-11-09T09:51:03.925Z,17.68
2017-11-09T09:53:30.292Z,17.94
2017-11-09T09:55:56.517Z,17.81
2017-11-09T09:58:22.801Z,18.02
2017-11-09T10:00:49.053Z,18.71
2017-11-09T10:03:15.420Z,18.97
2017-11-09T10:05:41.689Z,18.27
2017-11-09T10:08:07.921Z,18.69
2017-11-09T10:10:34.168Z,18.61
2017-11-09T10:13:00.446Z,17.89
2017-11-09T10:15:26.684Z,17.93
2017-11-09T10:17:52.919Z,18.43
2017-11-09T10:20:19.193Z,18.59
2017-11-09T10:22:45.552Z,18.68
2017-11-09T10:25:11.809Z,19.15
2017-11-09T10:27:38.105Z,18.99
2017-11-09T10:30:04.337Z,19.35
2017-11-09T10:32:30.541Z,20.80
2017-11-09T10:34:56.844Z,22.57
2017-11-09T10:37:23.070Z,23.74
2017-11-09T10:39:49.322Z,24.49
2017-11-09T10:42:15.601Z,24.08
2017-11-09T10:44:41.847Z,22.92
2017-11-09T10:47:08.080Z,23.98
2017-11-09T10:49:34.353Z,25.12
2017-11-09T10:52:00.601Z,25.82
2017-11-09T10:54:26.861Z,26.16
2017-11-09T10:56:53.136Z,26.45
2017-11-09T10:59:19.372Z,25.74
2017-11-09T11:01:45.624Z,25.19
2017-11-09T11:04:11.913Z,23.31
2017-11-09T11:06:38.151Z,23.65
2017-11-09T11:09:04.388Z,23.15
2017-11-09T11:11:30.661Z,22.06
2017-11-09T11:13:56.921Z,21.28
2017-11-09T11:16:23.163Z,20.68
2017-11-09T11:18:49.435Z,20.16
2017-11-09T11:21:15.681Z,19.75
2017-11-09T11:23:41.934Z,19.41
2017-11-09T11:26:08.228Z,19.14
2017-11-09T11:28:34.468Z,19.12
2017-11-09T11:31:00.712Z,18.19
2017-11-09T11:33:26.996Z,18.44
2017-11-09T11:35:53.228Z,18.34
2017-11-09T11:38:19.561Z,18.27
2017-11-09T11:40:45.855Z,18.22
2017-11-09T11:43:12.096Z,18.17
2017-11-09T11:45:38.329Z,17.97
2017-11-09T11:48:04.598Z,17.40
2017-11-09T11:50:30.842Z,17.35
2017-11-09T11:52:57.072Z,17.22
2017-11-09T11:55:23.348Z,17.07
2017-11-09T11:57:49.595Z,17.16
2017-11-09T12:00:15.841Z,17.05
2017-11-09T12:02:42.125Z,16.71
2017-11-09T12:05:08.343Z,16.92
2017-11-09T12:07:34.582Z,16.77
2017-11-09T12:10:00.871Z,16.89
2017-11-09T12:12:27.211Z,16.82
2017-11-09T12:14:53.464Z,16.77
2017-11-09T12:17:19.741Z,16.90
2017-11-09T12:19:45.978Z,16.99
2017-11-09T12:22:12.225Z,16.95
2017-11-09T12:24:38.515Z,16.73
2017-11-09T12:27:04.751Z,17.00
2017-11-09T12:29:30.988Z,16.65
2017-11-09T12:31:57.279Z,16.60
2017-11-09T12:34:23.533Z,16.64
2017-11-09T12:36:49.856Z,16.37
2017-11-09T12:39:16.136Z,16.35
2017-11-09T12:41:42.386Z,16.33
2017-11-09T12:44:08.646Z,16.68
2017-11-09T12:46:34.927Z,17.26
2017-11-09T12:49:01.162Z,17.60
2017-11-09T12:51:27.398Z,17.83
2017-11-09T12:53:53.667Z,17.87
2017-11-09T12:56:19.902Z,17.60
2017-11-09T12:58:46.129Z,17.29
2017-11-09T13:01:12.387Z,16.98
2017-11-09T13:03:38.604Z,17.22
2017-11-09T13:06:04.819Z,17.21
2017-11-09T13:08:31.092Z,17.11
2017-11-09T13:10:57.475Z,16.96
2017-11-09T13:13:23.713Z,16.86
2017-11-09T13:15:49.994Z,16.42
2017-11-09T13:18:16.360Z,16.45
2017-11-09T13:20:42.599Z,16.35
2017-11-09T13:23:08.876Z,16.30
2017-11-09T13:25:35.122Z,16.21
2017-11-09T13:28:01.362Z,16.13
2017-11-09T13:30:27.661Z,15.71
2017-11-09T13:32:53.894Z,15.66
2017-11-09T13:35:20.152Z,15.78
2017-11-09T13:37:46.414Z,15.68
2017-11-09T13:40:12.656Z,15.70
2017-11-09T13:42:38.893Z,15.37
2017-11-09T13:45:05.200Z,15.15
2017-11-09T13:47:31.440Z,15.07
2017-11-09T13:49:57.688Z,15.16
2017-11-09T13:52:23.977Z,15.26
2017-11-09T13:54:50.214Z,15.17
2017-11-09T13:57:16.442Z,15.15
2017-11-09T13:59:42.707Z,15.26
2017-11-09T14:02:08.946Z,15.26
2017-11-09T14:04:35.176Z,15.31
2017-11-09T14:07:01.443Z,15.12
2017-11-09T14:09:27.684Z,15.06
2017-11-09T14:11:53.911Z,14.96
2017-11-09T14:14:20.224Z,14.56
2017-11-09T14:16:46.561Z,14.61
2017-11-09T14:19:12.793Z,14.58
2017-11-09T14:21:39.074Z,14.45
2017-11-09T14:24:05.290Z,14.23
2017-11-09T14:26:31.535Z,14.17
2017-11-09T14:28:57.816Z,14.09
2017-11-09T14:31:24.297Z,14.08
2017-11-09T14:33:50.738Z,14.00
2017-11-09T14:36:17.415Z,14.00
2017-11-09T14:38:44.048Z,14.03
2017-11-09T14:41:10.440Z,13.95
2017-11-09T14:43:36.881Z,13.98
2017-11-09T14:46:03.302Z,14.03
2017-11-09T14:48:29.589Z,13.96
2017-11-09T14:50:56.016Z,14.00
2017-11-09T14:53:22.660Z,14.01
2017-11-09T14:55:49.267Z,14.07
2017-11-09T14:58:15.929Z,14.06
2017-11-09T15:00:42.551Z,14.10
2017-11-09T15:03:09.003Z,14.06
2017-11-09T15:05:35.510Z,14.10
2017-11-09T15:08:01.927Z,14.04
2017-11-09T15:10:28.345Z,13.97
2017-11-09T15:12:54.766Z,13.94
2017-11-09T15:15:21.352Z,13.90
2017-11-09T15:17:47.608Z,13.88
2017-11-09T15:20:14.241Z,13.79
2017-11-09T15:22:40.857Z,13.79
2017-11-09T15:25:07.106Z,13.75
2017-11-09T15:27:33.748Z,13.80
2017-11-09T15:30:00.255Z,13.74
2017-11-09T15:32:26.670Z,13.65
2017-11-09T15:34:53.114Z,13.61
2017-11-09T15:37:19.479Z,13.64
2017-11-09T15:39:46.097Z,13.63
2017-11-09T15:42:12.753Z,13.61
2017-11-09T15:44:39.192Z,13.55
2017-11-09T15:47:05.637Z,13.43
2017-11-09T15:49:32.216Z,13.49
2017-11-09T15:51:58.655Z,13.45
2017-11-09T15:54:25.077Z,13.43
2017-11-09T15:56:51.540Z,13.45
2017-11-09T15:59:17.959Z,13.41
2017-11-09T16:01:44.229Z,13.32
2017-11-09T16:04:10.500Z,13.36
2017-11-09T16:06:37.086Z,13.41
2017-11-09T16:09:03.529Z,13.41
2017-11-09T16:11:30.142Z,13.34
2017-11-09T16:13:56.422Z,13.22
2017-11-09T16:16:23.024Z,13.15
2017-11-09T16:18:49.519Z,13.17
2017-11-09T16:21:16.098Z,13.19
2017-11-09T16:23:42.728Z,13.22
2017-11-09T16:26:09.373Z,13.23
2017-11-09T16:28:35.860Z,13.16
2017-11-09T16:31:02.301Z,13.15
2017-11-09T16:33:28.843Z,13.15
2017-11-09T16:35:55.287Z,13.19
2017-11-09T16:38:21.706Z,13.08
2017-11-09T16:40:48.096Z,13.01
2017-11-09T16:43:14.398Z,13.09
2017-11-09T16:45:40.808Z,13.08
2017-11-09T16:48:07.482Z,13.04
2017-11-09T16:50:34.117Z,13.03
2017-11-09T16:53:00.633Z,13.07
2017-11-09T16:55:27.145Z,13.00
2017-11-09T16:57:53.422Z,13.00
2017-11-09T17:00:19.930Z,12.88
2017-11-09T17:02:46.349Z,12.89
2017-11-09T17:05:12.769Z,12.94
2017-11-09T17:07:39.355Z,12.97
2017-11-09T17:10:05.873Z,12.94
2017-11-09T17:12:32.291Z,12.93
2017-11-09T17:14:58.808Z,12.98
2017-11-09T17:17:25.088Z,12.87
2017-11-09T17:19:51.593Z,12.93
2017-11-09T17:22:17.956Z,12.83
2017-11-09T17:24:44.351Z,12.82
2017-11-09T17:27:10.823Z,12.89
2017-11-09T17:29:37.309Z,12.96
2017-11-09T17:32:03.752Z,12.98
2017-11-09T17:34:30.194Z,12.96
2017-11-09T17:36:56.611Z,12.95
2017-11-09T17:39:23.053Z,12.94
2017-11-09T17:41:49.470Z,12.89
2017-11-09T17:44:15.912Z,12.82
2017-11-09T17:46:42.450Z,12.78
2017-11-09T17:49:08.795Z,12.84
2017-11-09T17:51:35.214Z,12.87
2017-11-09T17:54:01.620Z,12.87
2017-11-09T17:56:28.227Z,12.85
2017-11-09T17:58:54.811Z,12.87
2017-11-09T18:01:21.479Z,12.84
2017-11-09T18:03:47.921Z,12.81
2017-11-09T18:06:14.365Z,12.82
2017-11-09T18:08:40.854Z,12.79
2017-11-09T18:11:07.309Z,12.77
2017-11-09T18:13:33.684Z,12.78
2017-11-09T18:16:00.310Z,12.76
2017-11-09T18:18:26.800Z,12.74
2017-11-09T18:20:53.178Z,12.74
2017-11-09T18:23:19.817Z,12.76
2017-11-09T18:25:46.529Z,12.73
2017-11-09T18:28:12.942Z,12.71
2017-11-09T18:30:39.487Z,12.67
2017-11-09T18:33:05.952Z,12.70
2017-11-09T18:35:32.566Z,12.66
2017-11-09T18:37:59.217Z,12.63
2017-11-09T18:40:25.463Z,12.63
2017-11-09T18:42:52.093Z,12.62
2017-11-09T18:45:18.606Z,12.56
2017-11-09T18:47:45.128Z,12.52
2017-11-09T18:50:11.402Z,12.38
2017-11-09T18:52:38.039Z,12.25
2017-11-09T18:55:04.268Z,12.13
2017-11-09T18:57:30.769Z,12.05
2017-11-09T18:59:57.187Z,11.93
2017-11-09T19:02:23.467Z,11.79
2017-11-09T19:04:49.915Z,11.66
2017-11-09T19:07:16.511Z,11.54
2017-11-09T19:09:42.929Z,11.34
2017-11-09T19:12:09.270Z,11.30
2017-11-09T19:14:35.668Z,11.16
2017-11-09T19:17:02.273Z,11.07
2017-11-09T19:19:28.797Z,10.98
2017-11-09T19:21:55.315Z,10.88
2017-11-09T19:24:21.753Z,10.79
2017-11-09T19:26:48.175Z,10.73
2017-11-09T19:29:14.852Z,10.75
2017-11-09T19:31:41.487Z,10.75
2017-11-09T19:34:07.713Z,10.77
2017-11-09T19:36:34.151Z,10.83
2017-11-09T19:39:00.783Z,10.90
2017-11-09T19:41:27.418Z,10.91
2017-11-09T19:43:53.858Z,10.93
2017-11-09T19:46:20.497Z,10.94
2017-11-09T19:48:47.021Z,10.97
2017-11-09T19:51:13.414Z,10.99
2017-11-09T19:53:40.001Z,11.02
2017-11-09T19:56:06.404Z,11.02
2017-11-09T19:58:32.849Z,11.01
2017-11-09T20:00:59.503Z,10.93
2017-11-09T20:03:26.151Z,10.84
2017-11-09T20:05:52.583Z,10.71
2017-11-09T20:08:18.998Z,10.66
2017-11-09T20:10:45.454Z,10.60
2017-11-09T20:13:12.063Z,10.56
2017-11-09T20:15:38.683Z,10.54
2017-11-09T20:18:05.103Z,10.47
2017-11-09T20:20:31.545Z,10.45
2017-11-09T20:22:57.964Z,10.51
2017-11-09T20:25:24.331Z,10.52
2017-11-09T20:27:50.683Z,10.52
2017-11-09T20:30:17.328Z,10.50
2017-11-09T20:32:43.743Z,10.52
2017-11-09T20:35:09.974Z,10.47
2017-11-09T20:37:36.445Z,10.52
2017-11-09T20:40:03.019Z,10.53
2017-11-09T20:42:29.694Z,10.56
2017-11-09T20:44:56.132Z,10.66
2017-11-09T20:47:22.557Z,10.73
2017-11-09T20:49:49.178Z,10.76
2017-11-09T20:52:15.597Z,10.79
2017-11-09T20:54:41.847Z,10.79
2017-11-09T20:57:08.187Z,10.77
2017-11-09T20:59:34.616Z,10.77
2017-11-09T21:02:00.850Z,10.76
2017-11-09T21:04:27.115Z,10.83
2017-11-09T21:06:53.344Z,10.82
2017-11-09T21:09:19.573Z,10.79
2017-11-09T21:11:45.843Z,10.74
2017-11-09T21:14:12.090Z,10.79
2017-11-09T21:16:38.433Z,10.74
2017-11-09T21:19:04.696Z,10.76
2017-11-09T21:21:30.921Z,10.79
2017-11-09T21:23:57.146Z,10.81
2017-11-09T21:26:23.445Z,10.82
2017-11-09T21:28:52.521Z,10.82
2017-11-09T21:31:18.782Z,10.78
2017-11-09T21:33:45.059Z,10.78
2017-11-09T21:36:11.277Z,10.79
2017-11-09T21:38:37.659Z,10.73
2017-11-09T21:41:04.159Z,10.67
2017-11-09T21:43:30.389Z,10.75
2017-11-09T21:45:56.946Z,10.83
2017-11-09T21:48:23.605Z,10.85
2017-11-09T21:50:50.231Z,10.85
2017-11-09T21:53:16.727Z,10.84
2017-11-09T21:55:43.110Z,10.63
2017-11-09T21:58:09.486Z,10.42
2017-11-09T22:00:35.935Z,10.50
2017-11-09T22:03:02.221Z,10.49
2017-11-09T22:05:28.457Z,10.55
2017-11-09T22:07:54.666Z,10.66
2017-11-09T22:10:20.939Z,10.72
2017-11-09T22:12:47.303Z,10.78
2017-11-09T22:15:13.551Z,10.85
2017-11-09T22:17:39.792Z,10.77
2017-11-09T22:20:06.022Z,10.93
2017-11-09T22:22:32.239Z,10.99
2017-11-09T22:24:58.517Z,11.00
2017-11-09T22:27:24.764Z,11.00
2017-11-09T22:29:50.982Z,11.02
2017-11-09T22:32:17.247Z,10.99
2017-11-09T22:34:43.472Z,10.93
2017-11-09T22:37:09.715Z,10.83
2017-11-09T22:39:35.984Z,10.73
2017-11-09T22:42:02.214Z,10.66
2017-11-09T22:44:28.426Z,10.56
2017-11-09T22:46:54.707Z,10.46
2017-11-09T22:49:20.918Z,10.31
2017-11-09T22:51:47.162Z,10.18
2017-11-09T22:54:13.441Z,10.10
2017-11-09T22:56:39.667Z,9.91
2017-11-09T22:59:05.885Z,9.93
2017-11-09T23:01:32.143Z,9.83
2017-11-09T23:03:58.384Z,9.74
2017-11-09T23:06:24.768Z,9.57
2017-11-09T23:08:51.051Z,9.54
2017-11-09T23:11:17.409Z,9.51
2017-11-09T23:13:43.635Z,9.46
2017-11-09T23:16:10.078Z,9.27
2017-11-09T23:18:36.303Z,9.39
2017-11-09T23:21:02.544Z,9.33
2017-11-09T23:23:28.847Z,9.33
2017-11-09T23:25:55.074Z,9.40
2017-11-09T23:28:21.421Z,9.42
2017-11-09T23:30:47.687Z,9.47
2017-11-09T23:33:13.971Z,9.55
2017-11-09T23:35:40.203Z,9.61
2017-11-09T23:38:06.461Z,9.64
2017-11-09T23:40:32.684Z,9.66
2017-11-09T23:42:59.014Z,9.72
2017-11-09T23:45:25.288Z,9.79
2017-11-09T23:47:51.502Z,9.84
2017-11-09T23:50:17.724Z,9.88
2017-11-09T23:52:43.979Z,9.94
2017-11-09T23:55:10.237Z,10.00
2017-11-09T23:57:36.451Z,10.09
